MMCE

Ciudad del Carmen International Airport

Ciudad del Carmen, Mexico
TAF MMCE 210503Z 2106/2206 08008KT 5SM HZ SCT015 OVC080 TEMPO 2106/2109 4SM -RA BKN015CB FM210900 06006KT P6SM 5SM HZ SCT012 BKN080 TEMPO 2111/2115 3SM BR BKN010 FM211800 12012KT P6SM BKN015CB OVC080 TEMPO 2202/2206 2SM TSRA OVC012CB
Issued Valid From Valid To
Aug-21 @ 05:03 UTC
(13 hours ago)
Aug-21 @ 06:00 UTC
(12 hours ago)
Aug-22 @ 06:00 UTC
(in 12 hours)
Expired Click to View Aug-21 @ 06:00 to Aug-21 @ 09:00
TAF MMCE 210503Z 2106/2206 08008KT 5SM HZ SCT015 OVC080
Wind Visibility Clouds Conditions
80° at 8 knots 5 miles
  • Scattered at 1,500' AGL
  • Overcast at 8,000' AGL
  • Haze
Expired Click to View Aug-21 @ 06:00 to Aug-21 @ 09:00
TEMPO 2106/2109 4SM -RA BKN015CB
Visibility Clouds Conditions
4 miles
  • Broken at 1,500' AGL
  • Light Rain
From Aug-21 @ 09:00 to Aug-21 @ 18:00
FM210900 06006KT P6SM 5SM HZ SCT012 BKN080
Wind Visibility Clouds Conditions
60° at 6 knots Greater than 6 miles
  • Scattered at 1,200' AGL
  • Broken at 8,000' AGL
  • Haze
Expired Click to View Aug-21 @ 11:00 to Aug-21 @ 15:00
TEMPO 2111/2115 3SM BR BKN010
Visibility Clouds Conditions
3 miles
  • Broken at 1,000' AGL
  • Mist
From Aug-21 @ 18:00 to Aug-22 @ 06:00
FM211800 12012KT P6SM BKN015CB OVC080
Wind Visibility Clouds
120° at 12 knots Greater than 6 miles
  • Broken at 1,500' AGL
  • Overcast at 8,000' AGL
Temporary Aug-22 @ 02:00 to Aug-22 @ 06:00
TEMPO 2202/2206 2SM TSRA OVC012CB
Visibility Clouds Conditions
2 miles
  • Overcast at 1,200' AGL
  • Thunderstorm
  • Rain
TAF MMCE 210503Z 2106/2206 08008KT 5SM HZ SCT015 OVC080 TEMPO 2106/2109 4SM -RA BKN015CB FM210900 06006KT P6SM 5SM HZ SCT012 BKN080 TEMPO 2111/2115 3SM BR BKN010 FM211800 12012KT P6SM BKN015CB OVC080 TEMPO 2202/2206 2SM TSRA OVC012CB
Issued Aug-21 @ 05:03 UTC
(13 hours ago)
Valid From Aug-21 @ 06:00 UTC
(12 hours ago)
Valid To Aug-22 @ 06:00 UTC
(in 12 hours)
Aug-21 @ 06:00 - Aug-21 @ 09:00
Wind Visibility
80° at 8 knots 5 miles
Clouds
  • Scattered at 1,500' AGL
  • Overcast at 8,000' AGL
Conditions
  • Haze
Aug-21 @ 06:00 - Aug-21 @ 09:00
Clouds
  • Broken at 1,500' AGL
Conditions
  • Light Rain
From Aug-21 @ 09:00 - Aug-21 @ 18:00
Wind Visibility
60° at 6 knots Greater than 6 miles
Clouds
  • Scattered at 1,200' AGL
  • Broken at 8,000' AGL
Conditions
  • Haze
Aug-21 @ 11:00 - Aug-21 @ 15:00
Clouds
  • Broken at 1,000' AGL
Conditions
  • Mist
From Aug-21 @ 18:00 - Aug-22 @ 06:00
Wind Visibility
120° at 12 knots Greater than 6 miles
Clouds
  • Broken at 1,500' AGL
  • Overcast at 8,000' AGL
Temporary Aug-22 @ 02:00 - Aug-22 @ 06:00
Clouds
  • Overcast at 1,200' AGL
Conditions
  • Thunderstorm
  • Rain